SPHO

Coronel FAP Alfredo Mendivil Duarte Airport

Ayacucho, Peru
SPHO 181100Z 1812/1912 VRB02KT 6000 DZ FEW005 OVC080 TX22/1819Z TN11/1911Z FM181300 VRB02KT 9000 FEW005 SCT0020 BKN070 TEMPO 1816/1821 34012KT RA FEW050TCU BKN100 BECMG 1903/1905 FEW020 SCT050 BKN080 PROB40 TEMPO 1908/1912 6000 DZ SCT010 OVC040
Issued Valid From Valid To
Jan-18 @ 11:00 UTC
(10 hours ago)
Jan-18 @ 12:00 UTC
(9 hours ago)
Jan-19 @ 12:00 UTC
(in 15 hours)
Expired Click to View Jan-18 @ 12:00 to Jan-18 @ 13:00
SPHO 181100Z 1812/1912 VRB02KT 6000 DZ FEW005 OVC080 TX22/1819Z TN11/1911Z
Wind Visibility Clouds Conditions
Variable at 2 knots 6,003 meters
  • Few at 500' AGL
  • Overcast at 8,000' AGL
  • Drizzle
From Jan-18 @ 13:00 to Jan-19 @ 03:00
FM181300 VRB02KT 9000 FEW005 SCT0020 BKN070
Wind Visibility Clouds
Variable at 2 knots 8,996 meters
  • Few at 500' AGL
  • Broken at 7,000' AGL
Temporary Jan-18 @ 16:00 to Jan-18 @ 21:00
TEMPO 1816/1821 34012KT RA FEW050TCU BKN100
Wind Clouds Conditions
340° at 12 knots
  • Few at 5,000' AGL
  • Broken at 10,000' AGL
  • Rain
Becoming Jan-19 @ 03:00 to Jan-19 @ 12:00
BECMG 1903/1905 FEW020 SCT050 BKN080
Wind Visibility Clouds
Variable at 2 knots 8,996 meters
  • Few at 2,000' AGL
  • Scattered at 5,000' AGL
  • Broken at 8,000' AGL
Temporary  (Probability 40%) Jan-19 @ 08:00 to Jan-19 @ 12:00
PROB40 TEMPO 1908/1912 6000 DZ SCT010 OVC040
Visibility Clouds Conditions
6,003 meters
  • Scattered at 1,000' AGL
  • Overcast at 4,000' AGL
  • Drizzle
SPHO 181100Z 1812/1912 VRB02KT 6000 DZ FEW005 OVC080 TX22/1819Z TN11/1911Z FM181300 VRB02KT 9000 FEW005 SCT0020 BKN070 TEMPO 1816/1821 34012KT RA FEW050TCU BKN100 BECMG 1903/1905 FEW020 SCT050 BKN080 PROB40 TEMPO 1908/1912 6000 DZ SCT010 OVC040
Issued Jan-18 @ 11:00 UTC
(10 hours ago)
Valid From Jan-18 @ 12:00 UTC
(9 hours ago)
Valid To Jan-19 @ 12:00 UTC
(in 15 hours)
Jan-18 @ 12:00 - Jan-18 @ 13:00
Wind Visibility
Variable at 2 knots 6,003 meters
Clouds
  • Few at 500' AGL
  • Overcast at 8,000' AGL
Conditions
  • Drizzle
From Jan-18 @ 13:00 - Jan-19 @ 03:00
Wind Visibility
Variable at 2 knots 8,996 meters
Clouds
  • Few at 500' AGL
  • Broken at 7,000' AGL
Temporary Jan-18 @ 16:00 - Jan-18 @ 21:00
Wind
340° at 12 knots
Clouds
  • Few at 5,000' AGL
  • Broken at 10,000' AGL
Conditions
  • Rain
Becoming Jan-19 @ 03:00 - Jan-19 @ 12:00
Wind Visibility
Variable at 2 knots 8,996 meters
Clouds
  • Few at 2,000' AGL
  • Scattered at 5,000' AGL
  • Broken at 8,000' AGL
Probability 40% Temporary Jan-19 @ 08:00 - Jan-19 @ 12:00
Clouds
  • Scattered at 1,000' AGL
  • Overcast at 4,000' AGL
Conditions
  • Drizzle